Nearby METAR Reports

 

KOXC - Oxford/Waterbury, Connecticut, USA
Distance from station: SE 8mi, 12km
Updated: Tue, 31-Mar-2015 11:50am EDT
Mostly cloudy
Mostly cloudy
 Wind from W
Wind: W 6 mph , 9 km/h
Temperature: 43°F , 6°C
Wind Chill: 39°F , 4°C
Dew Point: 25°F , -4°C
Humidity: 49%
Barometer: 29.81 inHg , 1009.5 hPa
Clouds: Mostly cloudy
Visibility: 10 miles , 16 km
Cloud details: Partly cloudy 4500 ft
Mostly cloudy 20000 ft
2015/03/31 15:50 KOXC 311550Z 28005KT 10SM SCT045 BKN200 06/M04 A2981
KDXR - Danbury, Connecticut, USA
Distance from station: SW 19mi, 30km
Updated: Tue, 31-Mar-2015 11:53am EDT
Partly cloudy
Partly cloudy
 
Temperature: 43°F , 6°C
Dew Point: 21°F , -6°C
Humidity: 42%
Barometer: 29.81 inHg , 1009.5 hPa
Clouds: Partly cloudy
Visibility: 10 miles , 16 km
Cloud details: Partly cloudy 10000 ft
2015/03/31 15:53 KDXR 311553Z 10SM SCT100 06/M06 A2981 RMK AO2 SLP095 T00611056
 
KMMK - Meriden, Connecticut, USA
Distance from station: E 20mi, 33km
Updated: Tue, 31-Mar-2015 11:53am EDT
Few Clouds
Few Clouds
 Wind from WNW
Wind: WNW 12 mph , 19 km/h
Temperature: 46°F , 8°C
Wind Chill: 40°F , 4°C
Dew Point: 25°F , -4°C
Humidity: 43%
Barometer: 29.80 inHg , 1009.1 hPa
Clouds: Few Clouds
Visibility: 10 miles , 16 km
Cloud details: Few Clouds 5000 ft
2015/03/31 15:53 KMMK 311553Z AUTO 29010KT 10SM FEW050 08/M04 A2980 RMK AO2 SLP093 T00781044 TSNO
KBDR - Bridgeport, Connecticut, USA
Distance from station: S 27mi, 44km
Updated: Tue, 31-Mar-2015 11:52am EDT
Few Clouds
Few Clouds
 Wind from SSW
Wind: SSW 18 mph , 30 km/h
Temperature: 45°F , 7°C
Wind Chill: 37°F , 3°C
Dew Point: 27°F , -3°C
Humidity: 49%
Barometer: 29.82 inHg , 1009.8 hPa
Clouds: Few Clouds
Visibility: 10 miles , 16 km
Cloud details: Few Clouds 5500 ft
2015/03/31 15:52 KBDR 311552Z 21016KT 10SM FEW055 07/M03 A2982 RMK AO2 SLP097 T00671028
 
KHVN - New Haven/Tweed, Connecticut, USA
Distance from station: SE 27mi, 44km
Updated: Tue, 31-Mar-2015 11:53am EDT
Few Clouds
Few Clouds
 Wind from SW
Wind: SW 9 mph , 15 km/h, Gust: 21 mph , 33 km/h
Temperature: 45°F , 7°C
Wind Chill: 40°F , 4°C
Dew Point: 27°F , -3°C
Humidity: 49%
Barometer: 29.81 inHg , 1009.5 hPa
Clouds: Few Clouds
Visibility: 10 miles , 16 km
Cloud details: Few Clouds 5000 ft
2015/03/31 15:53 KHVN 311553Z 22008G18KT 10SM FEW050 07/M03 A2981 RMK AO2 SLP095 T00671033
KHFD - Hartford/Brainar, Connecticut, USA
Distance from station: ENE 32mi, 52km
Updated: Tue, 31-Mar-2015 11:53am EDT
Partly cloudy
Partly cloudy
 Wind from SSW
Wind: SSW 10 mph , 17 km/h
Temperature: 46°F , 8°C
Wind Chill: 41°F , 5°C
Dew Point: 23°F , -5°C
Humidity: 40%
Barometer: 29.79 inHg , 1008.8 hPa
Clouds: Partly cloudy
Visibility: 10 miles , 16 km
Cloud details: Partly cloudy 5000 ft
2015/03/31 15:53 KHFD 311553Z 21009KT 10SM SCT050 08/M05 A2979 RMK AO2 SLP087 T00781050
 
KPOU - Poughkeepsie, New York, USA
Distance from station: W 35mi, 56km
Updated: Tue, 31-Mar-2015 11:53am EDT
Mostly cloudy
Mostly cloudy
 Wind from varies
Wind: varies 7 mph , 11 km/h
Temperature: 45°F , 7°C
Wind Chill: 41°F , 5°C
Dew Point: 23°F , -5°C
Humidity: 42%
Barometer: 29.80 inHg , 1009.1 hPa
Clouds: Mostly cloudy
Visibility: 10 miles , 16 km
Cloud details: Mostly cloudy 10000 ft
2015/03/31 15:53 KPOU 311553Z VRB06KT 10SM BKN100 07/M05 A2980 RMK AO2 SLP088 T00671050
KBDL - Windsor Locks, Connecticut, USA
Distance from station: NE 38mi, 62km
Updated: Tue, 31-Mar-2015 11:51am EDT
Mostly cloudy
Mostly cloudy
 Wind from varies
Wind: varies 3 mph , 6 km/h
Temperature: 46°F , 8°C
Dew Point: 21°F , -6°C
Humidity: 37%
Barometer: 29.77 inHg , 1008.1 hPa
Clouds: Mostly cloudy
Visibility: 10 miles , 16 km
Cloud details: Partly cloudy 4800 ft
Mostly cloudy 25000 ft
2015/03/31 15:51 KBDL 311551Z VRB03KT 10SM SCT048 BKN250 08/M06 A2977 RMK AO2 SLP083 T00831056
 
KSNC - Chester, Connecticut, USA
Distance from station: ESE 39mi, 63km
Updated: Tue, 31-Mar-2015 12:35pm EDT
Partly cloudy
Partly cloudy
 Wind from SW
Wind: SW 12 mph , 19 km/h, Gust: 16 mph , 26 km/h
Temperature: 45°F , 7°C
Wind Chill: 39°F , 4°C
Dew Point: 27°F , -3°C
Humidity: 49%
Barometer: 29.78 inHg , 1008.5 hPa
Clouds: Partly cloudy
Visibility: 10 miles , 16 km
Cloud details: Partly cloudy 4700 ft
2015/03/31 16:35 KSNC 311635Z AUTO 22010G14KT 360V010 10SM SCT047 07/M03 A2978 RMK AO2
KHPN - White Plains, New York, USA
Distance from station: SW 42mi, 67km
Updated: Tue, 31-Mar-2015 11:56am EDT
Mostly cloudy
Mostly cloudy
 Wind from varies
Wind: varies 7 mph , 11 km/h
Temperature: 43°F , 6°C
Wind Chill: 39°F , 4°C
Dew Point: 21°F , -6°C
Humidity: 42%
Barometer: 29.81 inHg , 1009.5 hPa
Clouds: Mostly cloudy
Visibility: 10 miles , 16 km
Cloud details: Few Clouds 4000 ft
Mostly cloudy 9000 ft
2015/03/31 15:56 KHPN 311556Z VRB06KT 10SM FEW040 BKN090 06/M06 A2981 RMK AO2 SLP098 T00611061
 
KSWF - Newburgh/Stewart, New York, USA
Distance from station: W 45mi, 72km
Updated: Tue, 31-Mar-2015 11:45am EDT
Partly cloudy
Partly cloudy
 Wind from W
Wind: W 13 mph , 20 km/h
Temperature: 43°F , 6°C
Wind Chill: 36°F , 2°C
Dew Point: 25°F , -4°C
Humidity: 49%
Barometer: 29.81 inHg , 1009.5 hPa
Clouds: Partly cloudy
Visibility: 20 miles , 32 km
Cloud details: Few Clouds 5000 ft
Partly cloudy 9000 ft
2015/03/31 15:45 KSWF 311545Z 26011KT 20SM FEW050 SCT090 06/M04 A2981
KBAF - Westfield, Massachusetts, USA
Distance from station: NNE 50mi, 80km
Updated: Tue, 31-Mar-2015 11:53am EDT
Few Clouds
Few Clouds
 Wind from W
Wind: W 15 mph , 24 km/h, Gust: 21 mph , 33 km/h
Temperature: 46°F , 8°C
Wind Chill: 40°F , 4°C
Dew Point: 21°F , -6°C
Humidity: 37%
Barometer: 29.77 inHg , 1008.1 hPa
Clouds: Few Clouds
Visibility: 10 miles , 16 km
Cloud details: Few Clouds 5000 ft
2015/03/31 15:53 KBAF 311553Z 27013G18KT 10SM FEW050 08/M06 A2977 RMK AO2 SLP085 T00781056